Time;durP1;ratioP1;P1;durP2;ratioP2;P2;SDS_P1;SDS_P2;PMS_P1;PMS_P2;Temp;Humidity;BMP_temperature;BMP_pressure;BME280_temperature;BME280_humidity;BME280_pressure;Samples;Min_cycle;Max_cycle;Signal;HPM_P1;HPM_P2
2023/06/11 00:01:23;;;;;;;3.92;3.10;;;;;;;21.40;86.30;99086.25;5021690;28;20137;-62
2023/06/11 00:03:52;;;;;;;4.40;3.05;;;;;;;21.43;85.61;99086.56;5019722;28;20050;-62
2023/06/11 00:06:20;;;;;;;3.83;2.85;;;;;;;21.40;85.74;99084.38;5019241;28;20068;-62
2023/06/11 00:08:46;;;;;;;5.55;3.10;;;;;;;21.40;85.37;99086.25;5020516;28;20111;-63
2023/06/11 00:11:12;;;;;;;5.43;3.58;;;;;;;21.40;84.68;99084.38;5020972;28;20050;-62
2023/06/11 00:13:38;;;;;;;5.88;3.53;;;;;;;21.26;85.80;99088.47;5020419;28;20369;-62
2023/06/11 00:16:04;;;;;;;4.80;3.28;;;;;;;21.30;84.99;99082.34;5020194;28;20041;-62
2023/06/11 00:18:29;;;;;;;4.90;3.45;;;;;;;21.48;84.54;99091.19;5018835;28;20049;-62
2023/06/11 00:20:56;;;;;;;8.60;3.33;;;;;;;21.56;83.92;99088.88;5020829;28;20037;-61
2023/06/11 00:23:23;;;;;;;5.75;2.85;;;;;;;21.62;83.19;99089.78;5023562;28;20074;-61
2023/06/11 00:25:48;;;;;;;4.25;2.75;;;;;;;21.61;82.88;99090.84;5020759;28;20274;-62
2023/06/11 00:28:14;;;;;;;4.05;2.80;;;;;;;21.59;82.71;99101.88;5020989;28;20063;-62
2023/06/11 00:30:39;;;;;;;4.30;3.15;;;;;;;21.58;82.66;99092.16;5020672;28;20037;-62
2023/06/11 00:33:05;;;;;;;3.08;2.65;;;;;;;21.62;82.40;99098.66;5019864;28;20135;-61
2023/06/11 00:35:30;;;;;;;4.25;3.40;;;;;;;21.63;82.05;99097.59;5017619;28;20053;-62
2023/06/11 00:37:57;;;;;;;3.60;2.58;;;;;;;21.64;81.89;99096.53;5016923;28;20038;-61
2023/06/11 00:40:23;;;;;;;3.55;2.85;;;;;;;21.63;81.95;99100.28;5024072;28;20270;-62
2023/06/11 00:42:50;;;;;;;5.22;2.90;;;;;;;21.66;81.88;99093.59;5019926;28;20033;-62
2023/06/11 00:45:16;;;;;;;4.47;3.08;;;;;;;21.68;81.59;99099.56;5019848;28;20087;-62
2023/06/11 00:47:42;;;;;;;3.72;2.90;;;;;;;21.63;81.75;99105.69;5020208;28;20048;-62
2023/06/11 00:50:09;;;;;;;4.60;3.22;;;;;;;21.76;81.39;99093.72;5020469;28;20037;-62
2023/06/11 00:52:35;;;;;;;3.45;2.85;;;;;;;21.77;80.91;99099.94;5020740;28;20080;-62
2023/06/11 00:55:02;;;;;;;6.10;3.20;;;;;;;21.75;81.12;99108.25;5019010;28;20030;-62
2023/06/11 00:57:27;;;;;;;4.13;3.22;;;;;;;21.71;81.16;99100.94;5018388;28;20235;-62
2023/06/11 00:59:55;;;;;;;4.00;2.83;;;;;;;21.75;81.27;99112.84;5017634;28;20057;-62
2023/06/11 01:02:33;;;;;;;4.35;3.22;;;;;;;21.73;81.46;99106.88;5019104;28;20034;-62
2023/06/11 01:05:02;;;;;;;4.57;3.03;;;;;;;21.76;80.75;99109.06;5019557;28;20061;-62
2023/06/11 01:07:34;;;;;;;3.65;2.58;;;;;;;21.55;81.56;99108.81;5023665;28;20030;-61
2023/06/11 01:10:00;;;;;;;6.00;2.78;;;;;;;21.58;81.51;99102.94;5019957;28;20037;-62
2023/06/11 01:12:25;;;;;;;5.40;2.92;;;;;;;21.57;81.82;99105.88;5020465;28;20033;-62
2023/06/11 01:14:51;;;;;;;3.08;2.58;;;;;;;21.34;82.82;99107.72;5018167;28;20042;-62
2023/06/11 01:17:25;;;;;;;3.58;3.00;;;;;;;21.24;83.92;99107.56;5017578;28;20173;-62
2023/06/11 01:20:19;;;;;;;3.97;3.08;;;;;;;21.40;83.21;99105.09;5018448;28;20177;-62
2023/06/11 01:23:15;;;;;;;4.72;3.00;;;;;;;21.34;83.55;99093.44;5017284;28;20058;-61
2023/06/11 01:25:52;;;;;;;3.40;3.10;;;;;;;21.33;83.80;99107.97;5019003;28;20649;-62
2023/06/11 01:28:22;;;;;;;4.97;3.05;;;;;;;21.35;83.83;99112.03;5019180;28;20417;-61
2023/06/11 01:30:52;;;;;;;4.35;3.38;;;;;;;21.23;84.51;99111.31;5020559;28;20037;-62
2023/06/11 01:33:19;;;;;;;4.47;3.50;;;;;;;21.12;85.38;99122.16;5020377;28;20128;-61
2023/06/11 01:35:45;;;;;;;8.30;3.58;;;;;;;21.18;85.50;99123.84;5019984;28;20258;-61
2023/06/11 01:38:11;;;;;;;4.50;3.20;;;;;;;21.28;85.52;99118.66;5001405;28;20309;-62
2023/06/11 01:40:37;;;;;;;6.80;4.18;;;;;;;21.35;85.14;99122.81;5020323;28;20076;-63
2023/06/11 01:43:02;;;;;;;5.18;3.78;;;;;;;21.38;85.35;99120.69;5020547;28;20113;-62
2023/06/11 01:45:32;;;;;;;5.38;3.97;;;;;;;21.50;85.01;99124.09;5018386;28;20184;-62
2023/06/11 01:48:00;;;;;;;5.05;3.50;;;;;;;21.54;84.56;99128.72;5018163;28;20036;-61
2023/06/11 01:50:25;;;;;;;5.30;3.80;;;;;;;21.58;84.28;99118.28;5018601;28;20041;-62
2023/06/11 01:52:51;;;;;;;4.15;3.72;;;;;;;21.60;84.09;99124.22;5018701;28;20041;-62
2023/06/11 01:55:17;;;;;;;4.40;3.53;;;;;;;21.57;84.26;99120.16;5018235;28;20036;-62
2023/06/11 01:57:43;;;;;;;4.28;3.88;;;;;;;21.52;84.02;99122.78;5018368;28;20359;-62
2023/06/11 02:00:10;;;;;;;5.60;4.15;;;;;;;21.37;85.01;99125.25;5018106;28;20038;-61
2023/06/11 02:02:41;;;;;;;6.93;3.88;;;;;;;21.26;85.87;99118.09;5018383;28;20213;-62
2023/06/11 02:05:07;;;;;;;5.13;3.67;;;;;;;21.27;86.13;99122.41;5017419;28;20084;-62
2023/06/11 02:07:33;;;;;;;4.65;4.25;;;;;;;21.35;85.80;99122.00;5016790;28;20200;-62
2023/06/11 02:09:58;;;;;;;4.20;3.30;;;;;;;21.42;85.15;99129.91;5018761;28;20040;-62
2023/06/11 02:12:24;;;;;;;4.70;3.88;;;;;;;21.32;85.64;99125.19;5019416;28;20025;-62
2023/06/11 02:14:49;;;;;;;5.32;4.18;;;;;;;21.37;85.46;99127.13;5019205;28;20323;-62
2023/06/11 02:17:15;;;;;;;4.75;3.70;;;;;;;21.45;85.06;99130.22;5019040;28;20092;-62
2023/06/11 02:19:40;;;;;;;5.40;3.72;;;;;;;21.46;84.47;99131.84;5019686;28;20092;-63
2023/06/11 02:22:06;;;;;;;5.13;4.03;;;;;;;21.39;84.74;99123.13;5019573;28;20036;-62
2023/06/11 02:24:31;;;;;;;8.82;4.47;;;;;;;21.32;85.01;99126.00;5018513;28;20319;-62
2023/06/11 02:26:57;;;;;;;4.15;3.50;;;;;;;21.29;85.49;99131.06;5020156;28;20254;-61
2023/06/11 02:29:22;;;;;;;4.82;3.90;;;;;;;21.31;85.11;99126.25;5019166;28;20041;-62
2023/06/11 02:31:48;;;;;;;5.15;4.20;;;;;;;21.33;85.03;99135.69;5018790;28;20043;-63
2023/06/11 02:34:13;;;;;;;4.97;3.85;;;;;;;21.35;84.75;99128.19;5018048;28;20050;-62
2023/06/11 02:36:39;;;;;;;6.88;4.18;;;;;;;21.34;84.22;99129.25;5016618;28;20085;-63
2023/06/11 02:39:04;;;;;;;4.63;3.95;;;;;;;21.38;84.27;99140.34;5016306;28;20071;-62
2023/06/11 02:41:30;;;;;;;6.00;3.83;;;;;;;21.38;83.52;99134.97;5018674;28;20048;-61
2023/06/11 02:43:55;;;;;;;4.72;3.75;;;;;;;21.30;83.55;99133.50;5018018;28;20437;-62
2023/06/11 02:46:21;;;;;;;6.25;3.90;;;;;;;21.22;84.10;99128.53;5016344;28;20057;-62
2023/06/11 02:48:47;;;;;;;5.32;3.50;;;;;;;21.27;83.58;99131.31;5017438;28;20061;-63
2023/06/11 02:51:12;;;;;;;5.70;3.75;;;;;;;21.20;83.63;99122.56;5017454;28;20373;-62
2023/06/11 02:53:38;;;;;;;4.93;3.88;;;;;;;21.24;83.52;99136.38;5017457;28;20342;-63
2023/06/11 02:56:04;;;;;;;5.78;3.97;;;;;;;21.16;83.80;99136.75;5018993;28;20080;-62
2023/06/11 02:58:29;;;;;;;8.68;3.97;;;;;;;21.06;83.98;99137.41;5017983;28;20034;-62
2023/06/11 03:00:55;;;;;;;5.82;4.38;;;;;;;21.00;84.25;99133.81;5018912;28;20273;-62
2023/06/11 03:03:20;;;;;;;5.80;4.18;;;;;;;20.99;84.56;99131.38;5019418;28;20346;-62
2023/06/11 03:05:45;;;;;;;6.40;4.50;;;;;;;20.87;85.01;99133.31;5019438;28;20038;-62
2023/06/11 03:08:11;;;;;;;5.90;4.43;;;;;;;20.75;85.88;99132.53;5017962;28;20030;-61
2023/06/11 03:10:36;;;;;;;5.03;3.85;;;;;;;20.71;86.42;99137.59;5018379;28;20093;-62
2023/06/11 03:13:02;;;;;;;6.22;4.05;;;;;;;20.77;86.64;99138.50;5018793;28;20046;-62
2023/06/11 03:15:28;;;;;;;5.47;4.22;;;;;;;20.77;86.17;99138.50;5018129;28;20077;-62
2023/06/11 03:17:53;;;;;;;5.80;4.63;;;;;;;20.84;86.11;99149.94;5021918;28;20212;-62
2023/06/11 03:20:19;;;;;;;7.07;4.43;;;;;;;20.93;85.51;99146.63;5021665;28;20038;-62
2023/06/11 03:22:44;;;;;;;5.85;4.20;;;;;;;20.95;85.16;99147.19;5019671;28;20038;-62
2023/06/11 03:25:10;;;;;;;6.85;4.10;;;;;;;21.01;85.53;99150.78;5020561;28;20041;-62
2023/06/11 03:27:36;;;;;;;6.78;4.28;;;;;;;21.12;84.66;99157.97;5021010;28;20030;-61
2023/06/11 03:30:01;;;;;;;6.28;3.90;;;;;;;21.16;84.44;99153.72;5021020;28;20038;-61
2023/06/11 03:32:27;;;;;;;7.00;4.43;;;;;;;21.17;84.73;99155.34;5020250;28;20048;-63
2023/06/11 03:34:52;;;;;;;6.50;4.03;;;;;;;21.22;84.45;99154.63;5021493;28;20076;-62
2023/06/11 03:37:18;;;;;;;7.03;4.50;;;;;;;21.26;84.35;99153.91;5022985;28;20327;-63
2023/06/11 03:39:44;;;;;;;5.15;4.10;;;;;;;21.28;83.69;99149.09;5021425;28;20116;-62
2023/06/11 03:42:09;;;;;;;7.05;4.05;;;;;;;21.18;84.29;99151.59;5021901;28;20030;-61
2023/06/11 03:44:35;;;;;;;5.47;3.88;;;;;;;21.15;84.63;99149.38;5022939;28;20188;-62
2023/06/11 03:47:01;;;;;;;7.05;3.88;;;;;;;21.04;85.38;99147.59;5020921;28;20053;-63
2023/06/11 03:49:26;;;;;;;6.35;4.50;;;;;;;20.96;85.85;99146.13;5019619;28;20042;-62
2023/06/11 03:51:52;;;;;;;6.97;4.45;;;;;;;20.96;86.61;99151.50;5021075;28;20048;-61
2023/06/11 03:54:17;;;;;;;7.50;4.70;;;;;;;20.76;87.52;99147.63;5021629;28;20435;-62
2023/06/11 03:56:43;;;;;;;5.80;4.32;;;;;;;20.97;87.01;99139.69;5021040;28;20231;-61
2023/06/11 03:59:08;;;;;;;5.40;4.57;;;;;;;21.08;86.58;99145.22;5019647;28;20064;-62
2023/06/11 04:01:33;;;;;;;5.03;4.22;;;;;;;21.04;86.67;99144.91;5019880;28;20030;-62
2023/06/11 04:03:59;;;;;;;7.32;4.70;;;;;;;21.00;87.33;99155.34;5020754;28;20045;-63
2023/06/11 04:06:25;;;;;;;5.70;4.13;;;;;;;21.01;87.33;99154.28;5021368;28;20227;-62
2023/06/11 04:08:50;;;;;;;6.97;4.38;;;;;;;21.00;87.84;99152.66;5020799;28;20231;-61
2023/06/11 04:11:16;;;;;;;5.85;4.47;;;;;;;21.22;86.84;99158.16;5018622;28;20103;-62
2023/06/11 04:13:41;;;;;;;7.03;4.65;;;;;;;21.23;86.67;99151.72;5018861;28;20038;-62
2023/06/11 04:16:07;;;;;;;6.47;4.15;;;;;;;21.25;86.96;99151.47;5020617;28;20025;-62
2023/06/11 04:18:32;;;;;;;6.22;4.45;;;;;;;21.30;87.17;99146.97;5020553;28;20030;-62
2023/06/11 04:20:58;;;;;;;7.63;4.70;;;;;;;21.32;87.07;99141.34;5021614;28;20034;-61
2023/06/11 04:23:23;;;;;;;6.97;4.97;;;;;;;21.42;86.61;99144.19;5021345;28;20068;-62
2023/06/11 04:25:49;;;;;;;6.68;4.53;;;;;;;21.48;85.84;99145.88;5020951;28;20029;-62
2023/06/11 04:28:15;;;;;;;8.30;4.72;;;;;;;21.32;86.71;99147.53;5019827;28;20048;-62
2023/06/11 04:30:41;;;;;;;7.07;4.70;;;;;;;21.42;86.56;99146.06;5020429;28;20342;-62
2023/06/11 04:33:08;;;;;;;5.65;4.57;;;;;;;21.40;85.74;99153.56;5020879;28;20300;-62
2023/06/11 04:35:35;;;;;;;6.00;4.22;;;;;;;21.51;85.74;99150.78;5021127;28;20227;-62
2023/06/11 04:38:02;;;;;;;6.75;4.60;;;;;;;21.55;85.97;99151.09;5019213;28;20048;-62
2023/06/11 04:40:28;;;;;;;5.32;4.63;;;;;;;21.57;85.89;99151.66;5018974;28;20386;-62
2023/06/11 04:42:54;;;;;;;6.30;4.80;;;;;;;21.58;85.26;99154.13;5019405;28;20057;-62
2023/06/11 04:45:20;;;;;;;6.22;4.97;;;;;;;21.71;84.37;99160.22;5020561;28;20037;-61
2023/06/11 04:47:46;;;;;;;6.32;4.85;;;;;;;21.79;84.15;99147.13;5019278;28;20120;-62
2023/06/11 04:50:12;;;;;;;6.85;4.32;;;;;;;21.87;83.18;99149.41;5018338;28;20158;-62
2023/06/11 04:52:38;;;;;;;6.38;4.68;;;;;;;21.95;83.12;99154.38;5019070;28;20034;-62
2023/06/11 04:55:09;;;;;;;6.28;4.05;;;;;;;21.97;82.56;99152.25;5019680;28;20319;-61
2023/06/11 04:57:36;;;;;;;6.22;4.13;;;;;;;21.96;82.44;99153.31;5020252;28;20037;-62
2023/06/11 05:00:07;;;;;;;5.72;4.35;;;;;;;22.01;82.20;99147.16;5019438;28;20041;-61
2023/06/11 05:02:33;;;;;;;4.35;3.92;;;;;;;22.14;82.25;99152.22;5020577;28;20084;-61
2023/06/11 05:04:58;;;;;;;10.43;4.03;;;;;;;22.18;81.39;99147.13;5019647;28;20532;-62
2023/06/11 05:07:23;;;;;;;5.78;4.32;;;;;;;22.17;81.10;99154.41;5020907;28;20335;-62
2023/06/11 05:09:49;;;;;;;4.45;3.70;;;;;;;22.15;80.93;99159.22;5020205;28;20075;-62
2023/06/11 05:12:15;;;;;;;4.82;4.13;;;;;;;22.16;80.51;99154.66;5019371;28;20045;-61
2023/06/11 05:14:42;;;;;;;5.72;4.07;;;;;;;21.95;81.14;99162.47;5022086;28;20092;-62
2023/06/11 05:17:07;;;;;;;7.40;3.78;;;;;;;22.13;80.78;99153.28;5026985;28;20025;-62
2023/06/11 05:19:33;;;;;;;5.05;3.97;;;;;;;22.03;82.31;99150.47;5036587;28;20052;-62
2023/06/11 05:21:58;;;;;;;8.77;6.15;;;;;;;22.28;82.00;99158.84;5036835;28;20033;-61
2023/06/11 05:24:28;;;;;;;8.82;6.03;;;;;;;22.23;80.72;99157.97;5037176;28;20045;-62
2023/06/11 05:26:58;;;;;;;14.00;12.52;;;;;;;22.30;80.86;99156.72;5039440;28;20136;-61
2023/06/11 05:29:25;;;;;;;21.13;17.42;;;;;;;22.44;80.56;99156.31;5038613;28;20053;-62
2023/06/11 05:31:50;;;;;;;7.35;5.30;;;;;;;22.50;78.62;99163.41;5039420;28;20099;-62
2023/06/11 05:34:16;;;;;;;9.88;8.88;;;;;;;22.54;79.55;99154.53;5038624;28;20331;-61
2023/06/11 05:36:42;;;;;;;12.77;11.68;;;;;;;22.79;77.76;99166.66;5039069;28;20049;-62
2023/06/11 05:39:08;;;;;;;8.57;7.78;;;;;;;22.76;77.90;99167.97;5038825;28;20346;-62
2023/06/11 05:41:33;;;;;;;17.52;16.02;;;;;;;22.84;76.85;99175.66;5038702;28;20215;-62
2023/06/11 05:43:59;;;;;;;12.85;11.68;;;;;;;22.83;76.38;99178.59;5038919;28;20045;-63
2023/06/11 05:46:25;;;;;;;21.40;19.70;;;;;;;22.83;76.40;99168.63;5039248;28;20327;-62
2023/06/11 05:48:51;;;;;;;7.15;5.20;;;;;;;23.05;75.48;99170.47;5038802;28;20037;-62
2023/06/11 05:51:16;;;;;;;4.90;4.18;;;;;;;23.06;75.46;99172.09;5038760;28;20311;-61
2023/06/11 05:53:42;;;;;;;8.27;7.57;;;;;;;23.03;75.91;99168.00;5038902;28;20333;-61
2023/06/11 05:56:07;;;;;;;8.27;4.75;;;;;;;23.13;75.53;99172.69;5018656;28;20311;-63
2023/06/11 05:58:33;;;;;;;6.22;5.55;;;;;;;23.17;74.69;99174.63;5018484;28;20319;-62
2023/06/11 06:01:02;;;;;;;7.78;5.35;;;;;;;23.25;73.70;99168.72;5019936;28;20310;-62
2023/06/11 06:03:32;;;;;;;8.52;7.65;;;;;;;23.26;74.57;99164.16;5018813;28;20030;-62
2023/06/11 06:05:59;;;;;;;7.47;6.78;;;;;;;23.32;73.46;99170.41;5017697;28;20343;-61
2023/06/11 06:08:29;;;;;;;8.38;7.55;;;;;;;23.26;73.32;99169.56;5018709;28;20344;-62
2023/06/11 06:10:55;;;;;;;7.85;7.25;;;;;;;23.52;72.16;99165.94;5023742;28;20599;-62
2023/06/11 06:13:24;;;;;;;6.13;5.45;;;;;;;23.70;72.00;99158.53;5018733;28;20335;-62
2023/06/11 06:15:49;;;;;;;5.70;4.10;;;;;;;23.81;70.36;99166.44;5018806;28;20361;-62
2023/06/11 06:18:15;;;;;;;6.00;3.92;;;;;;;23.88;70.29;99167.00;5018394;28;20029;-62
2023/06/11 06:20:41;;;;;;;6.57;5.95;;;;;;;24.00;69.99;99172.22;5017557;28;20045;-62
2023/06/11 06:23:07;;;;;;;7.60;5.60;;;;;;;23.98;70.58;99166.25;5019449;28;20088;-62
2023/06/11 06:25:33;;;;;;;6.05;5.38;;;;;;;24.04;68.78;99169.81;5018358;28;20033;-62
2023/06/11 06:27:59;;;;;;;5.18;4.47;;;;;;;24.38;68.47;99165.63;5020778;28;20057;-62
2023/06/11 06:30:25;;;;;;;3.90;3.50;;;;;;;24.66;65.36;99164.34;5017878;28;20045;-62
2023/06/11 06:32:50;;;;;;;6.25;4.78;;;;;;;24.87;65.73;99157.06;5016917;28;20244;-61
2023/06/11 06:35:16;;;;;;;4.63;3.67;;;;;;;25.06;63.26;99166.34;5018920;28;20274;-62
2023/06/11 06:37:41;;;;;;;5.57;4.10;;;;;;;25.01;62.24;99169.06;5018707;28;20046;-62
2023/06/11 06:40:07;;;;;;;14.73;4.28;;;;;;;25.11;62.62;99166.34;5017582;28;20358;-62
2023/06/11 06:42:33;;;;;;;5.55;3.92;;;;;;;25.14;61.30;99141.44;5016874;28;20188;-62
2023/06/11 06:44:58;;;;;;;8.68;3.97;;;;;;;25.42;61.69;99164.44;5018310;28;20046;-62
2023/06/11 06:47:24;;;;;;;5.68;3.90;;;;;;;25.51;60.33;99159.28;5018669;28;20041;-62
2023/06/11 06:49:49;;;;;;;4.78;4.18;;;;;;;25.52;60.54;99160.91;5019540;28;20054;-62
2023/06/11 06:52:15;;;;;;;5.30;4.22;;;;;;;25.55;59.81;99165.75;5020636;28;20041;-63
2023/06/11 06:54:41;;;;;;;5.60;4.60;;;;;;;25.66;60.76;99153.03;5022636;28;20048;-62
2023/06/11 06:57:10;;;;;;;5.82;3.70;;;;;;;25.70;60.33;99159.53;5020280;28;20053;-62
2023/06/11 06:59:36;;;;;;;6.18;4.80;;;;;;;25.77;59.54;99163.56;5022112;28;20209;-62
2023/06/11 07:02:01;;;;;;;4.57;4.10;;;;;;;25.78;59.03;99158.97;5020759;28;20092;-62
2023/06/11 07:04:26;;;;;;;6.38;4.30;;;;;;;25.81;60.26;99155.69;5020939;28;20335;-62
2023/06/11 07:06:52;;;;;;;6.45;4.35;;;;;;;25.88;59.45;99156.22;5021908;28;20072;-63
2023/06/11 07:09:17;;;;;;;4.63;4.13;;;;;;;25.93;59.74;99149.97;5021966;28;20041;-63
2023/06/11 07:11:43;;;;;;;4.68;4.07;;;;;;;26.01;58.04;99150.25;5022288;28;20041;-62
2023/06/11 07:14:08;;;;;;;7.47;4.78;;;;;;;26.11;57.90;99157.53;5021187;28;20436;-62
2023/06/11 07:16:35;;;;;;;5.00;4.47;;;;;;;26.23;59.46;99155.28;5022806;28;20040;-61
2023/06/11 07:19:00;;;;;;;5.57;4.47;;;;;;;26.34;59.08;99153.38;5021834;28;20119;-62
2023/06/11 07:21:26;;;;;;;5.25;4.32;;;;;;;26.44;57.07;99149.78;5022156;28;20033;-62
2023/06/11 07:23:51;;;;;;;7.47;4.18;;;;;;;26.67;56.56;99151.81;5022415;28;20100;-62
2023/06/11 07:26:18;;;;;;;7.03;4.40;;;;;;;26.76;56.44;99152.03;5022150;28;20079;-62
2023/06/11 07:28:43;;;;;;;6.88;3.92;;;;;;;26.79;54.40;99149.56;5023611;28;20120;-62
2023/06/11 07:31:09;;;;;;;6.35;5.72;;;;;;;26.71;54.89;99152.88;5022734;28;20465;-62
2023/06/11 07:33:34;;;;;;;5.47;4.50;;;;;;;26.83;54.03;99149.81;5021128;28;20049;-62
2023/06/11 07:36:00;;;;;;;5.70;4.30;;;;;;;26.98;53.12;99153.25;5021704;28;20026;-62
2023/06/11 07:38:25;;;;;;;5.15;4.18;;;;;;;27.03;52.54;99145.06;5021380;28;20084;-62
2023/06/11 07:40:52;;;;;;;6.05;4.97;;;;;;;27.09;53.49;99142.31;5022769;28;20060;-62
2023/06/11 07:43:17;;;;;;;4.65;3.72;;;;;;;27.22;53.56;99141.66;5019644;28;20112;-62
2023/06/11 07:45:43;;;;;;;5.57;4.20;;;;;;;27.31;53.47;99142.66;5019530;28;20281;-62
2023/06/11 07:48:09;;;;;;;7.45;5.57;;;;;;;27.23;53.53;99141.38;5020851;28;20319;-62
2023/06/11 07:50:35;;;;;;;6.22;4.32;;;;;;;27.38;52.61;99142.34;5019722;28;20165;-62
2023/06/11 07:53:00;;;;;;;6.20;4.97;;;;;;;27.41;52.93;99144.47;5019035;28;20037;-62
2023/06/11 07:55:26;;;;;;;5.50;4.40;;;;;;;27.32;51.81;99139.66;5021473;28;20038;-63
2023/06/11 07:57:51;;;;;;;4.63;3.90;;;;;;;27.45;52.14;99138.19;5021303;28;20108;-62
2023/06/11 08:00:17;;;;;;;7.55;4.50;;;;;;;27.58;50.22;99153.81;5020855;28;20036;-63
2023/06/11 08:02:44;;;;;;;5.78;4.05;;;;;;;27.55;48.89;99140.78;5022069;28;20052;-62
2023/06/11 08:05:11;;;;;;;5.82;4.10;;;;;;;27.64;48.01;99149.16;5020992;28;20065;-62
2023/06/11 08:07:37;;;;;;;6.88;3.83;;;;;;;27.67;45.88;99143.97;5022112;28;20037;-62
2023/06/11 08:10:03;;;;;;;6.72;4.00;;;;;;;27.65;44.29;99139.91;5019584;28;20038;-62
2023/06/11 08:15:50;;;;;;;7.47;5.05;;;;;;;27.63;43.97;99145.63;5039337;28;20041;-62
2023/06/11 08:18:15;;;;;;;5.10;4.25;;;;;;;27.60;44.09;99139.94;5039943;28;20034;-62
2023/06/11 08:20:41;;;;;;;4.93;4.28;;;;;;;27.80;43.92;99128.84;5038914;28;20048;-62
2023/06/11 08:23:07;;;;;;;5.57;4.10;;;;;;;27.97;42.89;99131.09;5040669;28;20078;-62
2023/06/11 08:25:32;;;;;;;6.70;4.45;;;;;;;28.12;43.73;99130.13;5040165;28;20383;-63
2023/06/11 08:27:58;;;;;;;4.90;4.40;;;;;;;28.16;40.87;99129.25;5039288;28;20075;-63
2023/06/11 08:30:23;;;;;;;6.30;4.85;;;;;;;28.18;40.79;99131.69;5037890;28;20037;-63
2023/06/11 08:32:49;;;;;;;7.40;4.82;;;;;;;28.25;40.28;99132.16;5037717;28;20045;-62
2023/06/11 08:35:14;;;;;;;4.38;3.97;;;;;;;28.35;40.55;99126.59;5038249;28;20033;-62
2023/06/11 08:37:40;;;;;;;6.95;4.32;;;;;;;28.25;40.37;99129.44;5038287;28;20345;-63
2023/06/11 08:40:08;;;;;;;4.80;4.35;;;;;;;28.41;41.31;99128.13;5038865;28;20234;-63
2023/06/11 08:42:34;;;;;;;5.53;3.92;;;;;;;28.66;42.04;99131.59;5039624;28;20041;-63
2023/06/11 08:45:01;;;;;;;6.47;4.03;;;;;;;28.85;40.70;99137.84;5040319;28;20040;-62
2023/06/11 08:47:30;;;;;;;4.95;4.15;;;;;;;29.05;39.86;99134.00;5039169;28;20030;-62
2023/06/11 08:49:59;;;;;;;5.78;3.80;;;;;;;29.21;39.16;99135.38;5038180;28;20350;-62
2023/06/11 08:52:26;;;;;;;6.03;4.10;;;;;;;29.38;40.17;99134.81;5039941;28;20100;-62
2023/06/11 08:54:52;;;;;;;4.97;4.22;;;;;;;29.52;40.08;99133.75;5039457;28;20276;-63
2023/06/11 08:57:18;;;;;;;4.30;3.90;;;;;;;29.64;38.34;99133.25;5039435;28;20214;-63
2023/06/11 08:59:44;;;;;;;8.60;4.15;;;;;;;29.83;37.63;99127.69;5039093;28;20065;-62
2023/06/11 09:02:09;;;;;;;5.82;3.58;;;;;;;29.68;37.23;99123.34;5039433;28;20036;-62
2023/06/11 09:04:35;;;;;;;4.90;3.58;;;;;;;29.84;36.90;99119.22;5039645;28;20338;-63
2023/06/11 09:07:01;;;;;;;11.52;4.63;;;;;;;29.88;34.98;99117.47;5038840;28;20033;-62
2023/06/11 09:09:27;;;;;;;9.23;4.47;;;;;;;30.07;35.08;99114.66;5038490;28;20037;-62
2023/06/11 09:11:52;;;;;;;9.63;4.43;;;;;;;29.83;36.65;99112.13;5038504;28;20099;-62
2023/06/11 09:14:19;;;;;;;4.88;3.63;;;;;;;29.50;35.42;99113.34;5038509;28;20587;-62
2023/06/11 09:16:46;;;;;;;5.72;4.50;;;;;;;29.43;36.63;99112.94;5038911;28;20053;-62
2023/06/11 09:19:14;;;;;;;4.85;4.10;;;;;;;29.54;37.11;99112.44;5036627;28;20354;-62
2023/06/11 09:21:47;;;;;;;9.73;4.20;;;;;;;29.33;36.76;99108.44;5037456;28;20033;-62
2023/06/11 09:24:13;;;;;;;4.75;3.38;;;;;;;28.60;36.08;99109.88;5039635;28;20045;-62
2023/06/11 09:26:38;;;;;;;4.90;3.90;;;;;;;28.29;38.84;99111.41;5040308;28;20376;-62
2023/06/11 09:29:04;;;;;;;5.38;3.90;;;;;;;28.50;38.61;99101.03;5039666;28;20378;-63
2023/06/11 09:31:30;;;;;;;7.18;3.80;;;;;;;28.71;38.04;99101.53;5040127;28;20079;-62
2023/06/11 09:34:02;;;;;;;5.07;4.15;;;;;;;28.36;37.12;99102.88;5039740;28;20242;-62
2023/06/11 09:36:29;;;;;;;18.55;5.50;;;;;;;28.28;38.16;99110.59;5040401;28;20058;-63
2023/06/11 09:38:55;;;;;;;4.95;3.67;;;;;;;28.31;38.95;99097.50;5039677;28;20211;-62
2023/06/11 09:41:21;;;;;;;6.40;4.25;;;;;;;28.31;38.36;99101.03;5039448;28;20043;-62
2023/06/11 09:43:51;;;;;;;4.32;3.47;;;;;;;28.36;37.88;99094.72;5038240;28;20132;-63
2023/06/11 09:46:17;;;;;;;4.47;3.88;;;;;;;28.38;38.38;99089.78;5039714;28;20087;-64
2023/06/11 09:48:44;;;;;;;4.47;3.72;;;;;;;28.27;37.57;99091.84;5040039;28;20041;-62
2023/06/11 09:51:10;;;;;;;4.35;3.78;;;;;;;28.26;38.38;99084.78;5037433;28;20068;-63
2023/06/11 09:53:38;;;;;;;5.50;3.63;;;;;;;28.18;37.74;99086.22;5037621;28;20313;-62
2023/06/11 09:56:05;;;;;;;5.18;3.60;;;;;;;28.11;39.16;99088.50;5039081;28;20203;-63
2023/06/11 09:58:33;;;;;;;5.45;3.80;;;;;;;28.22;39.84;99091.88;5039927;28;20082;-63
2023/06/11 10:01:00;;;;;;;4.50;3.55;;;;;;;27.99;37.36;99090.81;5038765;28;20350;-62
2023/06/11 10:03:26;;;;;;;4.13;3.00;;;;;;;27.88;39.05;99078.44;5039734;28;20028;-63
2023/06/11 10:05:53;;;;;;;4.10;2.88;;;;;;;27.97;37.77;99082.13;5039298;28;20295;-62
2023/06/11 10:08:24;;;;;;;5.45;3.90;;;;;;;27.98;37.65;99081.84;5040752;28;20052;-63
2023/06/11 10:11:01;;;;;;;6.65;3.30;;;;;;;28.03;39.55;99075.50;5043341;28;20114;-62
2023/06/11 10:13:31;;;;;;;6.53;3.50;;;;;;;27.91;39.53;99073.22;5039169;28;20053;-62
2023/06/11 10:16:09;;;;;;;5.60;2.67;;;;;;;27.54;39.03;99084.78;5038299;28;20037;-63
2023/06/11 10:18:35;;;;;;;5.28;3.20;;;;;;;27.45;39.74;99078.38;5039589;28;20029;-61
2023/06/11 10:21:03;;;;;;;9.50;3.83;;;;;;;27.50;38.87;99069.34;5039012;28;20039;-63
2023/06/11 10:23:41;;;;;;;4.90;3.30;;;;;;;27.64;40.61;99073.81;5038644;28;20045;-62
2023/06/11 10:26:09;;;;;;;4.15;3.10;;;;;;;27.84;39.41;99066.50;5037148;28;20037;-62
2023/06/11 10:28:45;;;;;;;4.68;3.30;;;;;;;27.79;38.21;99077.47;5036043;28;20053;-62
2023/06/11 10:31:10;;;;;;;4.88;3.45;;;;;;;27.71;40.28;99075.38;5037837;28;20030;-62
2023/06/11 10:33:44;;;;;;;5.28;3.65;;;;;;;27.72;40.29;99075.09;5038407;28;20249;-63
2023/06/11 10:36:20;;;;;;;4.68;3.28;;;;;;;27.66;41.16;99077.06;5038953;28;20354;-62
2023/06/11 10:38:45;;;;;;;3.90;3.42;;;;;;;27.57;42.06;99077.97;5039128;28;20112;-62
2023/06/11 10:41:11;;;;;;;5.93;3.53;;;;;;;27.46;42.84;99071.03;5038404;28;20215;-63
2023/06/11 10:43:38;;;;;;;4.95;3.42;;;;;;;27.60;40.76;99072.78;5039311;28;20430;-62
2023/06/11 10:46:11;;;;;;;6.10;3.55;;;;;;;27.77;40.36;99075.03;5039153;28;20061;-62
2023/06/11 10:48:43;;;;;;;4.93;3.22;;;;;;;27.81;40.77;99069.81;5038813;28;20041;-62
2023/06/11 10:51:13;;;;;;;6.03;4.03;;;;;;;27.71;41.06;99075.38;5039250;28;20033;-63
2023/06/11 10:53:40;;;;;;;5.15;3.78;;;;;;;27.80;41.79;99062.75;5039075;28;20037;-62
2023/06/11 10:56:11;;;;;;;6.97;3.85;;;;;;;27.91;41.70;99065.06;5037723;28;20335;-62
2023/06/11 10:58:37;;;;;;;7.15;3.97;;;;;;;27.97;42.35;99077.50;5038218;28;20091;-63
2023/06/11 11:01:06;;;;;;;5.20;3.60;;;;;;;28.01;41.01;99068.75;5036408;28;20045;-63
2023/06/11 11:03:33;;;;;;;4.55;3.53;;;;;;;27.99;42.50;99066.31;5036851;28;20043;-62
2023/06/11 11:05:58;;;;;;;6.38;4.05;;;;;;;28.01;41.92;99079.63;5036689;28;20048;-62
2023/06/11 11:08:24;;;;;;;4.60;4.20;;;;;;;27.95;42.70;99073.44;5036637;28;20358;-63
2023/06/11 11:10:59;;;;;;;6.97;3.95;;;;;;;28.13;41.48;99063.72;5037989;28;20131;-62
2023/06/11 11:13:24;;;;;;;4.55;3.72;;;;;;;28.32;42.42;99078.16;5037899;28;20072;-63
2023/06/11 11:15:51;;;;;;;4.40;3.50;;;;;;;28.38;42.57;99084.34;5038562;28;20041;-62
2023/06/11 11:18:16;;;;;;;13.68;3.90;;;;;;;28.17;43.58;99087.31;5038742;28;20084;-64
2023/06/11 11:20:45;;;;;;;101.97;12.18;;;;;;;27.71;43.31;99091.69;5038666;28;20049;-62
2023/06/11 11:23:10;;;;;;;34.92;6.05;;;;;;;27.17;45.04;99093.59;5037791;28;20087;-62
2023/06/11 11:25:36;;;;;;;33.97;5.88;;;;;;;26.89;47.89;99078.84;5037397;28;20383;-63
2023/06/11 11:28:03;;;;;;;12.18;4.22;;;;;;;26.60;49.44;99086.97;5036681;28;20037;-62
2023/06/11 11:30:29;;;;;;;19.70;5.53;;;;;;;26.47;50.02;99094.94;5037987;28;20049;-62
2023/06/11 11:32:55;;;;;;;14.07;3.72;;;;;;;26.21;47.80;99076.06;5038677;28;20318;-63